Weather reports worldwide

Advertisment
Malaga,Puerto, Spain (8479): temperature & dewpoint: 30.03.2020 21:00:00 - 05.04.2020 21:00:00 (CEST)Malaga,Puerto, Spain (8479): wind speed & gusts: 30.03.2020 21:00:00 - 05.04.2020 21:00:00 (CEST)Malaga,Puerto, Spain (8479): wind direction: 30.03.2020 21:00:00 - 05.04.2020 21:00:00 (CEST)Malaga,Puerto, Spain (8479): reduced air pressure: 30.03.2020 21:00:00 - 05.04.2020 21:00:00 (CEST)Malaga,Puerto, Spain (8479): precipitation: 30.03.2020 21:00:00 - 05.04.2020 21:00:00 (CEST)
Date & Time tt [°C] td [°C] ff [km/h] ff [kn] fx [km/h] fx [kn] dd ppp [hPa] rr [mm]
05.04.2020 21:00:00 15,9 10,4 1 1 12 6 E 1020,4 0,0
05.04.2020 20:00:00 16,3 9,9 6 3 12 7 SE 1019,8 -
05.04.2020 19:00:00 16,7 9,7 4 2 14 8 SE 1019,6 0,0
05.04.2020 18:00:00 18,1 9,7 4 2 16 8 ESE 1019,5 0,0
05.04.2020 17:00:00 16,5 9,4 10 5 16 9 SE 1019,4 0,0
05.04.2020 16:00:00 16,6 9,0 13 7 19 10 SE 1019,6 0,0
05.04.2020 15:00:00 16,4 8,4 12 7 18 10 SE 1019,9 0,0
05.04.2020 14:00:00 18,1 8,9 9 5 15 8 S 1020,5 -
05.04.2020 13:00:00 18,2 8,5 0 0 13 7 S 1020,6 0,0
05.04.2020 12:00:00 19,2 8,0 0 0 8 4 SSE 1020,5 0,0
05.04.2020 11:00:00 18,8 10,0 0 0 - - W 1020,2 -
05.04.2020 10:00:00 15,3 9,2 0 0 12 6 NW 1019,8 0,0
05.04.2020 09:00:00 13,1 8,9 5 3 14 7 N 1019,6 0,0
05.04.2020 08:00:00 13,0 9,3 0 0 14 8 N 1019,4 -
05.04.2020 07:00:00 13,1 9,7 1 1 10 5 N 1019,0 0,0
05.04.2020 06:00:00 13,2 9,8 1 0 11 6 NNW 1018,8 0,0
05.04.2020 05:00:00 13,7 9,9 4 2 11 6 NNW 1018,6 0,0
05.04.2020 04:00:00 14,0 10,0 0 0 1 1 NNW 1018,7 0,0
05.04.2020 03:00:00 14,8 10,6 0 0 5 3 WNW 1019,1 0,0
05.04.2020 02:00:00 15,4 11,0 0 0 16 9 SE 1019,1 -
05.04.2020 01:00:00 14,8 10,6 0 0 1 0 W 1019,3 0,0
05.04.2020 00:00:00 15,0 10,6 0 0 6 3 NNW 1019,3 0,0
04.04.2020 23:00:00 15,5 10,3 0 0 5 3 NW 1018,9 0,0
04.04.2020 22:00:00 16,0 10,0 2 1 8 4 NNE 1018,5 0,0
04.04.2020 21:00:00 16,3 9,9 0 0 17 9 S 1017,6 0,0
04.04.2020 20:00:00 16,4 9,6 14 8 19 11 SSW 1016,9 -
04.04.2020 19:00:00 17,2 10,0 15 8 27 15 S 1016,6 0,0
04.04.2020 18:00:00 17,2 8,1 12 6 27 14 SSE 1015,8 0,0
04.04.2020 17:00:00 17,4 6,2 13 7 43 23 E 1015,3 0,0
04.04.2020 16:00:00 16,4 9,6 13 7 32 17 E 1016,1 0,1
04.04.2020 15:00:00 17,0 9,2 7 4 23 12 SE 1017,7 0,0
04.04.2020 14:00:00 16,9 8,5 14 8 23 12 SSE 1017,1 -
04.04.2020 13:00:00 18,3 8,8 3 2 22 12 ESE 1016,7 0,0
04.04.2020 12:00:00 18,1 8,7 5 3 29 16 ESE 1016,4 0,0
04.04.2020 11:00:00 16,4 8,7 11 6 32 17 ESE 1015,4 0,0
04.04.2020 10:00:00 15,8 8,8 10 5 27 15 ESE 1015,1 0,0
04.04.2020 09:00:00 15,6 8,8 3 2 18 10 E 1015,3 0,0
04.04.2020 08:00:00 14,4 8,5 6 3 21 11 E 1015,5 -
04.04.2020 07:00:00 14,4 8,5 4 2 22 12 E 1015,2 0,0
04.04.2020 06:00:00 14,4 8,1 3 2 22 12 E 1015,4 0,0
04.04.2020 05:00:00 14,6 7,8 6 3 21 11 E 1015,9 0,0
04.04.2020 04:00:00 - - - - - - - - -
04.04.2020 03:00:00 14,5 8,7 9 5 22 12 E 1016,7 0,0
04.04.2020 02:00:00 14,7 8,9 13 7 30 16 E 1017,1 -
04.04.2020 01:00:00 14,9 9,0 15 8 28 15 E 1017,5 0,0
04.04.2020 00:00:00 14,8 9,4 9 5 18 10 ENE 1017,9 0,0
03.04.2020 23:00:00 15,6 9,7 7 4 19 10 E 1017,9 0,0
03.04.2020 22:00:00 15,4 9,3 8 4 26 14 ENE 1017,2 0,0
03.04.2020 21:00:00 15,6 9,4 11 6 27 14 E 1016,5 0,0
03.04.2020 20:00:00 15,8 9,7 12 7 28 15 ESE 1016,6 -
03.04.2020 19:00:00 16,4 9,6 11 6 26 14 E 1016,4 0,0
03.04.2020 18:00:00 15,9 9,3 18 10 29 16 ESE 1016,5 0,0
03.04.2020 17:00:00 16,5 9,4 15 8 31 17 ESE 1016,6 0,0
03.04.2020 16:00:00 16,7 9,2 14 7 32 17 ESE 1016,8 0,0
03.04.2020 15:00:00 17,5 8,7 5 3 26 14 ESE 1017,1 0,0
03.04.2020 14:00:00 17,6 8,9 9 5 23 12 SSE 1017,5 -
03.04.2020 13:00:00 17,7 8,5 6 3 22 12 ESE 1017,7 0,0
03.04.2020 12:00:00 17,5 7,6 5 3 21 11 ESE 1017,7 0,0
03.04.2020 11:00:00 17,4 8,0 5 3 20 11 SE 1016,6 0,0
03.04.2020 10:00:00 16,9 6,4 1 1 16 9 NNE 1016,0 0,0
03.04.2020 09:00:00 13,2 5,6 0 0 3 1 NNW 1016,0 0,0
03.04.2020 08:00:00 13,2 5,3 0 0 18 10 N 1015,6 -
03.04.2020 07:00:00 13,3 5,1 4 2 17 9 N 1015,4 0,0
03.04.2020 06:00:00 12,8 5,5 0 0 16 8 NW 1015,5 0,0
03.04.2020 05:00:00 13,2 5,1 5 3 16 9 NNW 1015,4 0,0
03.04.2020 04:00:00 13,7 5,1 0 0 3 1 WNW 1015,9 0,0
03.04.2020 03:00:00 13,6 5,0 1 0 13 7 WNW 1016,0 0,0
03.04.2020 02:00:00 13,4 5,0 1 1 9 5 WSW 1016,4 -
03.04.2020 01:00:00 13,5 5,1 0 0 13 7 WSW 1016,3 0,0
03.04.2020 00:00:00 14,1 4,6 1 0 31 17 WNW 1015,5 0,0
02.04.2020 23:00:00 14,2 4,5 5 3 31 17 NW 1015,3 0,0
02.04.2020 22:00:00 14,6 4,6 1 1 28 15 NW 1014,7 0,0
02.04.2020 21:00:00 14,7 5,0 4 2 24 13 NW 1013,7 0,0
02.04.2020 20:00:00 14,7 5,8 5 3 19 10 NNW 1013,4 -
02.04.2020 19:00:00 14,5 7,7 0 0 18 10 S 1013,3 0,0
02.04.2020 18:00:00 12,7 7,0 14 7 26 14 E 1012,6 0,0
02.04.2020 17:00:00 13,8 7,1 8 4 16 9 ENE 1012,7 6,3
02.04.2020 16:00:00 12,6 6,7 12 7 24 13 SSW 1012,6 3,6
02.04.2020 15:00:00 14,4 5,9 0 0 10 5 S 1012,2 0,0
02.04.2020 14:00:00 14,9 5,5 0 0 2 1 SSE 1012,3 -
02.04.2020 13:00:00 13,1 5,9 0 0 5 3 SW 1012,6 0,0
02.04.2020 12:00:00 13,0 4,5 0 0 9 5 SW 1012,6 0,0
02.04.2020 11:00:00 14,4 6,2 5 3 9 5 E 1012,2 0,0
02.04.2020 10:00:00 10,5 6,4 0 0 24 13 NW 1012,1 0,9
02.04.2020 09:00:00 9,0 5,3 6 3 34 18 N 1012,1 5,9
02.04.2020 08:00:00 12,7 9,2 0 0 18 10 SW 1011,6 -
02.04.2020 07:00:00 13,7 7,4 4 2 16 8 E 1011,1 0,0
02.04.2020 06:00:00 12,9 6,1 1 0 8 4 NE 1011,4 0,0
02.04.2020 05:00:00 12,1 5,3 0 0 8 4 NNW 1011,9 0,0
02.04.2020 04:00:00 12,0 5,1 0 0 16 8 N 1012,5 0,0
02.04.2020 03:00:00 12,0 5,1 0 0 11 6 NNW 1013,4 0,0
02.04.2020 02:00:00 12,3 5,3 5 3 9 5 N 1013,7 -
02.04.2020 01:00:00 13,2 4,8 3 2 8 5 NNE 1014,3 0,0
02.04.2020 00:00:00 14,5 4,5 0 0 8 4 W 1014,8 0,0
01.04.2020 23:00:00 14,9 4,8 1 1 16 8 N 1014,6 0,0
01.04.2020 22:00:00 15,6 4,6 5 3 25 14 NNW 1013,9 0,0
01.04.2020 21:00:00 16,8 4,5 5 3 18 10 SW 1012,5 0,0
01.04.2020 20:00:00 17,4 5,3 16 9 31 17 SSW 1012,3 -
01.04.2020 19:00:00 18,9 6,1 3 2 12 6 SE 1012,1 0,0
01.04.2020 18:00:00 19,6 8,3 0 0 21 11 NNE 1012,0 0,0
01.04.2020 17:00:00 17,2 8,4 4 2 17 9 ESE 1012,5 0,0
01.04.2020 16:00:00 16,5 8,7 7 4 16 9 ESE 1012,9 0,0
01.04.2020 15:00:00 15,4 10,2 1 1 29 16 ENE 1013,2 3,1
01.04.2020 14:00:00 16,2 9,4 18 10 27 14 SSW 1013,2 -
01.04.2020 13:00:00 15,9 10,0 1 0 3 2 SSW 1013,9 0,0
01.04.2020 12:00:00 16,5 9,7 0 0 9 5 SSE 1014,3 0,0
01.04.2020 11:00:00 15,6 10,4 0 0 1 1 SSE 1014,3 0,0
01.04.2020 10:00:00 14,3 10,2 0 0 2 1 NNW 1013,5 0,0
01.04.2020 09:00:00 13,1 10,3 0 0 1 1 NNW 1013,2 0,0
01.04.2020 08:00:00 13,1 10,4 0 0 4 2 N 1012,6 -
01.04.2020 07:00:00 13,4 10,5 0 0 6 4 N 1012,2 0,0
01.04.2020 06:00:00 13,6 10,8 1 1 7 4 NNE 1011,9 0,0
01.04.2020 05:00:00 14,1 11,2 5 3 16 9 ENE 1011,7 0,0
01.04.2020 04:00:00 14,3 11,4 8 4 19 10 E 1011,9 0,0
01.04.2020 03:00:00 14,3 10,9 5 3 8 4 NE 1012,2 0,0
01.04.2020 02:00:00 14,4 11,0 3 2 18 10 E 1012,2 -
01.04.2020 01:00:00 15,0 11,8 9 5 16 9 E 1012,3 0,0
01.04.2020 00:00:00 15,3 11,3 1 0 21 11 E 1011,9 0,0
31.03.2020 23:00:00 14,9 12,5 10 5 23 12 E 1011,8 0,5
31.03.2020 22:00:00 15,0 12,6 14 8 26 14 ESE 1011,1 0,1
31.03.2020 21:00:00 14,8 12,4 14 7 26 14 ESE 1010,4 0,0
31.03.2020 20:00:00 15,0 12,3 17 9 27 15 SE 1009,3 -
31.03.2020 19:00:00 14,6 12,3 12 7 19 10 SE 1009,0 0,1
31.03.2020 18:00:00 14,7 11,4 9 5 36 20 SE 1009,1 0,1
31.03.2020 17:00:00 14,5 11,7 12 7 32 18 E 1008,5 0,8
31.03.2020 16:00:00 14,7 11,3 13 7 28 15 ESE 1008,4 0,2
31.03.2020 15:00:00 14,3 12,3 9 5 19 10 E 1008,5 1,5
31.03.2020 14:00:00 13,1 11,4 2 1 26 14 E 1008,8 -
31.03.2020 13:00:00 12,6 11,0 18 10 29 16 ENE 1008,6 15,8
31.03.2020 12:00:00 12,8 10,9 12 6 22 12 E 1008,2 3,0
31.03.2020 11:00:00 13,5 11,3 18 10 46 25 S 1008,0 3,6
31.03.2020 10:00:00 14,1 11,4 25 14 49 27 SSE 1006,5 0,5
31.03.2020 09:00:00 14,3 11,7 35 19 59 32 ESE 1006,1 1,2
31.03.2020 08:00:00 13,0 11,4 23 13 50 27 ESE 1005,8 -
31.03.2020 07:00:00 13,1 10,8 16 8 39 21 E 1005,7 0,5
31.03.2020 06:00:00 13,0 10,4 19 10 40 22 E 1005,8 1,0
31.03.2020 05:00:00 12,8 10,2 11 6 33 18 E 1007,0 0,8
31.03.2020 04:00:00 13,3 10,9 18 10 35 19 ESE 1006,7 2,4
31.03.2020 03:00:00 13,9 12,1 12 6 19 11 E 1007,2 6,6
31.03.2020 02:00:00 14,2 11,3 4 2 19 11 E 1007,8 -
31.03.2020 01:00:00 15,3 10,3 7 4 15 8 E 1008,1 0,0
31.03.2020 00:00:00 15,4 9,9 8 4 20 11 E 1007,9 0,0
30.03.2020 23:00:00 15,4 10,2 6 4 13 7 ENE 1008,9 0,0
30.03.2020 22:00:00 15,6 10,5 4 2 14 7 E 1008,7 0,0
30.03.2020 21:00:00 15,4 10,2 7 4 13 7 SE 1008,6 0,0

tt = temperature
td = dewpoint
ff = wind speed
fx = gusts
dd = wind direction
ppp = reduced air pressure
rr = precipitation

Next stations